sensor_id;sensor_type;location;lat;lon;timestamp;pressure;altitude;pressure_sealevel;temperature;humidity
67803;BME280;54601;51.378;-1.342;2023-02-14T00:02:20;101782.45;;;19.18;30.66
67803;BME280;54601;51.378;-1.342;2023-02-14T00:04:45;101785.07;;;19.48;30.51
67803;BME280;54601;51.378;-1.342;2023-02-14T00:07:10;101784.67;;;19.41;30.62
67803;BME280;54601;51.378;-1.342;2023-02-14T00:09:35;101779.93;;;19.27;30.75
67803;BME280;54601;51.378;-1.342;2023-02-14T00:12:00;101782.57;;;19.72;30.94
67803;BME280;54601;51.378;-1.342;2023-02-14T00:14:26;101777.84;;;19.11;31.16
67803;BME280;54601;51.378;-1.342;2023-02-14T00:16:51;101775.95;;;19.20;31.05
67803;BME280;54601;51.378;-1.342;2023-02-14T00:19:17;101778.30;;;19.18;31.01
67803;BME280;54601;51.378;-1.342;2023-02-14T00:21:41;101778.72;;;19.20;30.98
67803;BME280;54601;51.378;-1.342;2023-02-14T00:24:08;101777.71;;;19.21;30.97
67803;BME280;54601;51.378;-1.342;2023-02-14T00:26:32;101775.50;;;19.26;30.88
67803;BME280;54601;51.378;-1.342;2023-02-14T00:28:57;101777.35;;;19.33;30.80
67803;BME280;54601;51.378;-1.342;2023-02-14T00:31:23;101771.91;;;19.55;30.83
67803;BME280;54601;51.378;-1.342;2023-02-14T00:33:48;101770.77;;;19.22;30.88
67803;BME280;54601;51.378;-1.342;2023-02-14T00:36:13;101765.69;;;19.25;30.85
67803;BME280;54601;51.378;-1.342;2023-02-14T00:38:38;101769.76;;;19.19;30.93
67803;BME280;54601;51.378;-1.342;2023-02-14T00:41:03;101761.24;;;19.21;30.89
67803;BME280;54601;51.378;-1.342;2023-02-14T00:43:29;101761.09;;;19.24;30.87
67803;BME280;54601;51.378;-1.342;2023-02-14T00:45:54;101764.89;;;19.19;30.93
67803;BME280;54601;51.378;-1.342;2023-02-14T00:48:19;101760.64;;;19.19;30.89
67803;BME280;54601;51.378;-1.342;2023-02-14T00:50:44;101761.71;;;19.65;30.98
67803;BME280;54601;51.378;-1.342;2023-02-14T00:53:09;101754.10;;;19.18;30.94
67803;BME280;54601;51.378;-1.342;2023-02-14T00:55:34;101762.96;;;19.14;30.99
67803;BME280;54601;51.378;-1.342;2023-02-14T00:57:59;101757.97;;;19.12;31.01
67803;BME280;54601;51.378;-1.342;2023-02-14T01:00:25;101749.02;;;19.06;31.08
67803;BME280;54601;51.378;-1.342;2023-02-14T01:02:50;101750.39;;;19.29;31.13
67803;BME280;54601;51.378;-1.342;2023-02-14T01:05:15;101755.75;;;19.07;31.09
67803;BME280;54601;51.378;-1.342;2023-02-14T01:07:40;101755.41;;;19.04;31.14
67803;BME280;54601;51.378;-1.342;2023-02-14T01:10:06;101751.12;;;19.03;31.15
67803;BME280;54601;51.378;-1.342;2023-02-14T01:12:30;101751.64;;;19.51;31.16
67803;BME280;54601;51.378;-1.342;2023-02-14T01:14:56;101755.77;;;19.37;31.10
67803;BME280;54601;51.378;-1.342;2023-02-14T01:17:21;101756.53;;;19.31;31.14
67803;BME280;54601;51.378;-1.342;2023-02-14T01:19:46;101756.50;;;19.02;31.19
67803;BME280;54601;51.378;-1.342;2023-02-14T01:22:11;101754.80;;;19.03;31.18
67803;BME280;54601;51.378;-1.342;2023-02-14T01:24:36;101754.68;;;19.10;31.09
67803;BME280;54601;51.378;-1.342;2023-02-14T01:27:02;101757.55;;;19.15;31.07
67803;BME280;54601;51.378;-1.342;2023-02-14T01:29:27;101762.78;;;19.19;30.99
67803;BME280;54601;51.378;-1.342;2023-02-14T01:31:52;101760.37;;;19.18;31.02
67803;BME280;54601;51.378;-1.342;2023-02-14T01:34:17;101755.76;;;19.09;31.15
67803;BME280;54601;51.378;-1.342;2023-02-14T01:36:42;101752.39;;;19.54;31.13
67803;BME280;54601;51.378;-1.342;2023-02-14T01:39:10;101758.42;;;19.00;31.27
67803;BME280;54601;51.378;-1.342;2023-02-14T01:41:35;101756.82;;;19.01;31.26
67803;BME280;54601;51.378;-1.342;2023-02-14T01:44:00;101755.75;;;19.04;31.21
67803;BME280;54601;51.378;-1.342;2023-02-14T01:46:24;101756.63;;;18.98;31.29
67803;BME280;54601;51.378;-1.342;2023-02-14T01:48:50;101758.82;;;19.00;31.31
67803;BME280;54601;51.378;-1.342;2023-02-14T01:51:15;101757.82;;;19.21;31.33
67803;BME280;54601;51.378;-1.342;2023-02-14T01:53:39;101754.59;;;19.32;31.27
67803;BME280;54601;51.378;-1.342;2023-02-14T01:56:06;101758.95;;;19.02;31.27
67803;BME280;54601;51.378;-1.342;2023-02-14T01:58:31;101760.26;;;19.46;30.81
67803;BME280;54601;51.378;-1.342;2023-02-14T02:00:54;101761.21;;;19.57;30.63
67803;BME280;54601;51.378;-1.342;2023-02-14T02:03:20;101755.57;;;19.55;30.69
67803;BME280;54601;51.378;-1.342;2023-02-14T02:05:49;101757.63;;;19.91;30.90
67803;BME280;54601;51.378;-1.342;2023-02-14T02:08:10;101758.01;;;19.63;30.63
67803;BME280;54601;51.378;-1.342;2023-02-14T02:10:35;101756.75;;;20.05;30.70
67803;BME280;54601;51.378;-1.342;2023-02-14T02:13:03;101758.14;;;19.66;30.63
67803;BME280;54601;51.378;-1.342;2023-02-14T02:15:26;101756.83;;;19.92;30.65
67803;BME280;54601;51.378;-1.342;2023-02-14T02:17:56;101751.38;;;19.60;30.69
67803;BME280;54601;51.378;-1.342;2023-02-14T02:25:13;101755.65;;;19.51;30.90
67803;BME280;54601;51.378;-1.342;2023-02-14T02:30:14;101757.31;;;20.10;30.82
67803;BME280;54601;51.378;-1.342;2023-02-14T02:37:22;101763.95;;;19.99;30.76
67803;BME280;54601;51.378;-1.342;2023-02-14T02:39:49;101758.33;;;20.02;30.76
67803;BME280;54601;51.378;-1.342;2023-02-14T02:42:05;101756.14;;;19.72;30.79
67803;BME280;54601;51.378;-1.342;2023-02-14T02:44:40;101754.18;;;19.77;30.75
67803;BME280;54601;51.378;-1.342;2023-02-14T02:46:59;101750.79;;;19.73;30.81
67803;BME280;54601;51.378;-1.342;2023-02-14T02:49:26;101749.85;;;20.27;30.75
67803;BME280;54601;51.378;-1.342;2023-02-14T02:51:45;101747.99;;;20.01;30.82
67803;BME280;54601;51.378;-1.342;2023-02-14T02:54:12;101750.79;;;20.31;30.76
67803;BME280;54601;51.378;-1.342;2023-02-14T02:56:36;101748.13;;;19.74;30.84
67803;BME280;54601;51.378;-1.342;2023-02-14T02:59:01;101750.38;;;19.67;30.93
67803;BME280;54601;51.378;-1.342;2023-02-14T03:01:25;101748.82;;;20.12;30.78
67803;BME280;54601;51.378;-1.342;2023-02-14T03:03:53;101750.08;;;19.89;30.74
67803;BME280;54601;51.378;-1.342;2023-02-14T03:06:13;101746.89;;;20.09;30.84
67803;BME280;54601;51.378;-1.342;2023-02-14T03:08:39;101742.55;;;20.37;30.82
67803;BME280;54601;51.378;-1.342;2023-02-14T03:11:04;101737.33;;;20.28;30.93
67803;BME280;54601;51.378;-1.342;2023-02-14T03:18:31;101743.82;;;19.83;30.94
67803;BME280;54601;51.378;-1.342;2023-02-14T03:20:51;101733.62;;;20.22;30.81
67803;BME280;54601;51.378;-1.342;2023-02-14T03:23:15;101737.78;;;20.21;30.84
67803;BME280;54601;51.378;-1.342;2023-02-14T03:25:41;101740.00;;;19.96;30.82
67803;BME280;54601;51.378;-1.342;2023-02-14T03:28:06;101728.87;;;19.80;31.09
67803;BME280;54601;51.378;-1.342;2023-02-14T03:30:31;101731.20;;;19.84;31.05
67803;BME280;54601;51.378;-1.342;2023-02-14T03:32:53;101728.77;;;19.97;30.92
67803;BME280;54601;51.378;-1.342;2023-02-14T03:35:21;101733.41;;;20.21;30.95
67803;BME280;54601;51.378;-1.342;2023-02-14T03:37:44;101737.98;;;19.82;31.07
67803;BME280;54601;51.378;-1.342;2023-02-14T03:40:08;101743.79;;;19.83;31.07
67803;BME280;54601;51.378;-1.342;2023-02-14T03:42:34;101744.74;;;19.97;30.93
67803;BME280;54601;51.378;-1.342;2023-02-14T03:44:56;101734.17;;;20.03;30.88
67803;BME280;54601;51.378;-1.342;2023-02-14T03:47:23;101732.07;;;20.10;30.81
67803;BME280;54601;51.378;-1.342;2023-02-14T03:49:51;101729.91;;;20.47;30.92
67803;BME280;54601;51.378;-1.342;2023-02-14T03:52:12;101731.21;;;19.84;31.08
67803;BME280;54601;51.378;-1.342;2023-02-14T03:54:37;101732.40;;;20.08;30.86
67803;BME280;54601;51.378;-1.342;2023-02-14T03:57:07;101730.82;;;19.96;30.96
67803;BME280;54601;51.378;-1.342;2023-02-14T03:59:28;101732.54;;;20.29;30.93
67803;BME280;54601;51.378;-1.342;2023-02-14T04:01:54;101726.27;;;20.32;30.91
67803;BME280;54601;51.378;-1.342;2023-02-14T04:04:19;101722.85;;;20.34;30.89
67803;BME280;54601;51.378;-1.342;2023-02-14T04:06:42;101725.34;;;20.06;30.91
67803;BME280;54601;51.378;-1.342;2023-02-14T04:09:07;101724.52;;;20.49;30.97
67803;BME280;54601;51.378;-1.342;2023-02-14T04:11:32;101723.12;;;20.08;30.93
67803;BME280;54601;51.378;-1.342;2023-02-14T04:13:57;101719.45;;;20.36;30.88
67803;BME280;54601;51.378;-1.342;2023-02-14T04:16:23;101717.51;;;20.19;30.79
67803;BME280;54601;51.378;-1.342;2023-02-14T04:18:48;101721.07;;;20.08;30.92
67803;BME280;54601;51.378;-1.342;2023-02-14T04:21:13;101722.33;;;20.09;30.91
67803;BME280;54601;51.378;-1.342;2023-02-14T04:23:38;101724.71;;;20.17;30.85
67803;BME280;54601;51.378;-1.342;2023-02-14T04:26:03;101720.91;;;20.11;30.92
67803;BME280;54601;51.378;-1.342;2023-02-14T04:28:28;101724.48;;;20.20;30.82
67803;BME280;54601;51.378;-1.342;2023-02-14T04:30:53;101723.43;;;20.14;30.89
67803;BME280;54601;51.378;-1.342;2023-02-14T04:33:18;101729.06;;;20.12;30.88
67803;BME280;54601;51.378;-1.342;2023-02-14T04:35:44;101729.38;;;20.43;30.84
67803;BME280;54601;51.378;-1.342;2023-02-14T04:38:09;101729.97;;;20.54;30.96
67803;BME280;54601;51.378;-1.342;2023-02-14T04:40:34;101726.24;;;20.39;30.89
67803;BME280;54601;51.378;-1.342;2023-02-14T04:42:59;101715.92;;;20.16;30.86
67803;BME280;54601;51.378;-1.342;2023-02-14T04:45:24;101710.21;;;20.11;30.93
67803;BME280;54601;51.378;-1.342;2023-02-14T04:47:50;101716.04;;;20.05;31.00
67803;BME280;54601;51.378;-1.342;2023-02-14T04:50:14;101715.33;;;20.24;30.79
67803;BME280;54601;51.378;-1.342;2023-02-14T04:52:40;101713.72;;;20.27;30.75
67803;BME280;54601;51.378;-1.342;2023-02-14T04:55:06;101711.38;;;20.18;30.85
67803;BME280;54601;51.378;-1.342;2023-02-14T04:57:30;101708.24;;;20.23;30.78
67803;BME280;54601;51.378;-1.342;2023-02-14T04:59:55;101706.01;;;20.23;30.81
67803;BME280;54601;51.378;-1.342;2023-02-14T05:02:20;101703.02;;;20.10;30.94
67803;BME280;54601;51.378;-1.342;2023-02-14T05:04:45;101701.94;;;20.22;30.85
67803;BME280;54601;51.378;-1.342;2023-02-14T05:07:11;101705.60;;;20.53;30.80
67803;BME280;54601;51.378;-1.342;2023-02-14T05:09:35;101703.11;;;20.34;30.69
67803;BME280;54601;51.378;-1.342;2023-02-14T05:12:00;101699.10;;;20.30;30.77
67803;BME280;54601;51.378;-1.342;2023-02-14T05:14:26;101695.71;;;20.30;30.77
67803;BME280;54601;51.378;-1.342;2023-02-14T05:16:51;101692.19;;;20.27;30.77
67803;BME280;54601;51.378;-1.342;2023-02-14T05:19:16;101697.29;;;20.20;30.81
67803;BME280;54601;51.378;-1.342;2023-02-14T05:21:41;101702.44;;;20.36;30.64
67803;BME280;54601;51.378;-1.342;2023-02-14T05:24:06;101705.47;;;20.32;30.69
67803;BME280;54601;51.378;-1.342;2023-02-14T05:26:31;101702.55;;;20.29;30.72
67803;BME280;54601;51.378;-1.342;2023-02-14T05:28:56;101694.37;;;20.27;30.77
67803;BME280;54601;51.378;-1.342;2023-02-14T05:31:22;101692.30;;;20.40;30.62
67803;BME280;54601;51.378;-1.342;2023-02-14T05:33:47;101690.32;;;20.36;30.62
67803;BME280;54601;51.378;-1.342;2023-02-14T05:36:12;101694.03;;;20.34;30.64
67803;BME280;54601;51.378;-1.342;2023-02-14T05:38:37;101698.46;;;20.32;30.67
67803;BME280;54601;51.378;-1.342;2023-02-14T05:41:02;101696.12;;;20.30;30.68
67803;BME280;54601;51.378;-1.342;2023-02-14T05:43:27;101697.14;;;20.38;30.64
67803;BME280;54601;51.378;-1.342;2023-02-14T05:45:52;101695.64;;;20.23;30.79
67803;BME280;54601;51.378;-1.342;2023-02-14T05:48:17;101703.91;;;20.27;30.78
67803;BME280;54601;51.378;-1.342;2023-02-14T05:50:42;101705.79;;;20.42;30.62
67803;BME280;54601;51.378;-1.342;2023-02-14T05:53:08;101707.67;;;20.28;30.79
67803;BME280;54601;51.378;-1.342;2023-02-14T05:55:33;101706.67;;;20.66;30.68
67803;BME280;54601;51.378;-1.342;2023-02-14T05:57:58;101707.59;;;20.39;30.70
67803;BME280;54601;51.378;-1.342;2023-02-14T06:00:23;101707.84;;;20.41;30.69
67803;BME280;54601;51.378;-1.342;2023-02-14T06:02:48;101708.58;;;20.21;30.87
67803;BME280;54601;51.378;-1.342;2023-02-14T06:05:13;101709.01;;;20.31;30.78
67803;BME280;54601;51.378;-1.342;2023-02-14T06:07:38;101712.44;;;20.29;30.78
67803;BME280;54601;51.378;-1.342;2023-02-14T06:10:04;101712.36;;;20.35;30.73
67803;BME280;54601;51.378;-1.342;2023-02-14T06:12:29;101713.73;;;20.34;30.75
67803;BME280;54601;51.378;-1.342;2023-02-14T06:14:54;101718.72;;;20.38;30.70
67803;BME280;54601;51.378;-1.342;2023-02-14T06:17:19;101719.24;;;20.37;30.70
67803;BME280;54601;51.378;-1.342;2023-02-14T06:19:44;101720.77;;;20.40;30.68
67803;BME280;54601;51.378;-1.342;2023-02-14T06:22:09;101721.83;;;20.40;30.66
67803;BME280;54601;51.378;-1.342;2023-02-14T06:24:35;101724.75;;;19.58;30.76
67803;BME280;54601;51.378;-1.342;2023-02-14T06:27:00;101724.22;;;20.49;30.55
67803;BME280;54601;51.378;-1.342;2023-02-14T06:29:25;101730.40;;;20.40;30.63
67803;BME280;54601;51.378;-1.342;2023-02-14T06:31:50;101727.34;;;20.13;30.92
67803;BME280;54601;51.378;-1.342;2023-02-14T06:34:15;101725.18;;;20.29;30.76
67803;BME280;54601;51.378;-1.342;2023-02-14T06:36:40;101723.97;;;20.40;30.62
67803;BME280;54601;51.378;-1.342;2023-02-14T06:39:05;101722.47;;;20.34;30.66
67803;BME280;54601;51.378;-1.342;2023-02-14T06:41:30;101717.63;;;20.34;30.67
67803;BME280;54601;51.378;-1.342;2023-02-14T06:43:55;101716.30;;;20.41;30.55
67803;BME280;54601;51.378;-1.342;2023-02-14T06:46:21;101718.13;;;20.35;30.62
67803;BME280;54601;51.378;-1.342;2023-02-14T06:48:46;101714.48;;;20.33;30.61
67803;BME280;54601;51.378;-1.342;2023-02-14T06:51:11;101716.64;;;20.26;30.67
67803;BME280;54601;51.378;-1.342;2023-02-14T06:53:36;101719.28;;;20.31;30.58
67803;BME280;54601;51.378;-1.342;2023-02-14T06:56:01;101720.74;;;20.34;30.52
67803;BME280;54601;51.378;-1.342;2023-02-14T06:58:26;101720.89;;;20.29;30.53
67803;BME280;54601;51.378;-1.342;2023-02-14T07:00:53;101718.13;;;20.45;30.35
67803;BME280;54601;51.378;-1.342;2023-02-14T07:03:17;101723.32;;;20.32;30.45
67803;BME280;54601;51.378;-1.342;2023-02-14T07:05:42;101724.79;;;20.56;30.46
67803;BME280;54601;51.378;-1.342;2023-02-14T07:08:07;101725.82;;;20.29;30.44
67803;BME280;54601;51.378;-1.342;2023-02-14T07:10:32;101729.38;;;20.29;30.44
67803;BME280;54601;51.378;-1.342;2023-02-14T07:12:57;101729.96;;;20.35;30.35
67803;BME280;54601;51.378;-1.342;2023-02-14T07:15:22;101735.10;;;20.30;30.36
67803;BME280;54601;51.378;-1.342;2023-02-14T07:17:47;101734.50;;;20.21;30.48
67803;BME280;54601;51.378;-1.342;2023-02-14T07:20:13;101737.77;;;20.26;30.38
67803;BME280;54601;51.378;-1.342;2023-02-14T07:22:38;101738.54;;;20.38;30.25
67803;BME280;54601;51.378;-1.342;2023-02-14T07:25:03;101739.15;;;20.32;30.30
67803;BME280;54601;51.378;-1.342;2023-02-14T07:27:28;101741.43;;;20.22;30.39
67803;BME280;54601;51.378;-1.342;2023-02-14T07:29:53;101741.74;;;20.51;30.36
67803;BME280;54601;51.378;-1.342;2023-02-14T07:32:18;101746.95;;;20.28;30.35
67803;BME280;54601;51.378;-1.342;2023-02-14T07:34:43;101745.79;;;20.25;30.39
67803;BME280;54601;51.378;-1.342;2023-02-14T07:37:09;101748.46;;;20.17;30.47
67803;BME280;54601;51.378;-1.342;2023-02-14T07:39:34;101755.15;;;20.28;30.37
67803;BME280;54601;51.378;-1.342;2023-02-14T07:41:59;101754.18;;;20.28;30.35
67803;BME280;54601;51.378;-1.342;2023-02-14T07:44:24;101757.49;;;20.31;30.31
67803;BME280;54601;51.378;-1.342;2023-02-14T07:46:49;101758.48;;;20.16;30.43
67803;BME280;54601;51.378;-1.342;2023-02-14T07:49:14;101760.37;;;20.15;30.47
67803;BME280;54601;51.378;-1.342;2023-02-14T07:51:39;101764.20;;;20.27;30.34
67803;BME280;54601;51.378;-1.342;2023-02-14T07:54:04;101767.53;;;20.25;30.39
67803;BME280;54601;51.378;-1.342;2023-02-14T07:56:29;101769.02;;;20.27;30.36
67803;BME280;54601;51.378;-1.342;2023-02-14T07:58:55;101772.58;;;20.22;30.41
67803;BME280;54601;51.378;-1.342;2023-02-14T08:01:20;101778.60;;;20.34;30.31
67803;BME280;54601;51.378;-1.342;2023-02-14T08:03:45;101781.09;;;20.36;30.31
67803;BME280;54601;51.378;-1.342;2023-02-14T08:06:10;101783.83;;;20.20;30.45
67803;BME280;54601;51.378;-1.342;2023-02-14T08:08:35;101785.00;;;20.24;30.46
67803;BME280;54601;51.378;-1.342;2023-02-14T08:11:00;101783.49;;;20.27;30.41
67803;BME280;54601;51.378;-1.342;2023-02-14T08:13:26;101780.65;;;20.26;30.42
67803;BME280;54601;51.378;-1.342;2023-02-14T08:15:50;101780.32;;;20.34;30.35
67803;BME280;54601;51.378;-1.342;2023-02-14T08:18:16;101778.99;;;20.25;30.41
67803;BME280;54601;51.378;-1.342;2023-02-14T08:20:41;101778.61;;;20.34;30.33
67803;BME280;54601;51.378;-1.342;2023-02-14T08:23:06;101777.49;;;20.54;30.40
67803;BME280;54601;51.378;-1.342;2023-02-14T08:25:31;101772.96;;;20.31;30.35
67803;BME280;54601;51.378;-1.342;2023-02-14T08:27:56;101773.14;;;20.24;30.39
67803;BME280;54601;51.378;-1.342;2023-02-14T08:30:22;101772.60;;;20.25;30.43
67803;BME280;54601;51.378;-1.342;2023-02-14T08:32:47;101775.60;;;20.31;30.40
67803;BME280;54601;51.378;-1.342;2023-02-14T08:35:12;101775.18;;;20.41;30.30
67803;BME280;54601;51.378;-1.342;2023-02-14T08:37:37;101775.74;;;20.36;30.42
67803;BME280;54601;51.378;-1.342;2023-02-14T08:40:02;101772.59;;;20.33;30.47
67803;BME280;54601;51.378;-1.342;2023-02-14T08:42:27;101776.76;;;19.91;31.20
67803;BME280;54601;51.378;-1.342;2023-02-14T08:44:52;101775.73;;;20.06;31.62
67803;BME280;54601;51.378;-1.342;2023-02-14T08:47:17;101777.06;;;20.22;30.81
67803;BME280;54601;51.378;-1.342;2023-02-14T08:49:42;101780.21;;;20.40;30.59
67803;BME280;54601;51.378;-1.342;2023-02-14T08:52:08;101780.99;;;20.33;30.69
67803;BME280;54601;51.378;-1.342;2023-02-14T08:54:33;101779.49;;;20.09;30.93
67803;BME280;54601;51.378;-1.342;2023-02-14T08:56:58;101772.28;;;19.77;31.66
67803;BME280;54601;51.378;-1.342;2023-02-14T08:59:24;101768.79;;;20.07;31.36
67803;BME280;54601;51.378;-1.342;2023-02-14T09:01:48;101771.92;;;19.96;31.63
67803;BME280;54601;51.378;-1.342;2023-02-14T09:04:13;101773.52;;;20.30;31.24
67803;BME280;54601;51.378;-1.342;2023-02-14T09:06:39;101770.02;;;20.12;31.25
67803;BME280;54601;51.378;-1.342;2023-02-14T09:09:04;101767.27;;;20.30;31.17
67803;BME280;54601;51.378;-1.342;2023-02-14T09:11:29;101763.57;;;20.25;31.24
67803;BME280;54601;51.378;-1.342;2023-02-14T09:13:54;101759.93;;;20.22;31.19
67803;BME280;54601;51.378;-1.342;2023-02-14T09:16:20;101756.00;;;20.05;31.42
67803;BME280;54601;51.378;-1.342;2023-02-14T09:18:45;101755.58;;;20.37;31.10
67803;BME280;54601;51.378;-1.342;2023-02-14T09:21:11;101754.20;;;20.55;30.86
67803;BME280;54601;51.378;-1.342;2023-02-14T09:23:35;101758.14;;;20.66;30.75
67803;BME280;54601;51.378;-1.342;2023-02-14T09:26:00;101754.73;;;20.52;30.67
67803;BME280;54601;51.378;-1.342;2023-02-14T09:28:25;101751.91;;;20.77;30.63
67803;BME280;54601;51.378;-1.342;2023-02-14T09:30:50;101755.51;;;20.85;30.57
67803;BME280;54601;51.378;-1.342;2023-02-14T09:33:15;101761.37;;;20.72;30.70
67803;BME280;54601;51.378;-1.342;2023-02-14T09:35:40;101765.54;;;20.05;31.59
67803;BME280;54601;51.378;-1.342;2023-02-14T09:38:05;101768.13;;;19.99;31.91
67803;BME280;54601;51.378;-1.342;2023-02-14T09:40:31;101766.74;;;19.99;32.06
67803;BME280;54601;51.378;-1.342;2023-02-14T09:43:02;101766.39;;;20.19;32.16
67803;BME280;54601;51.378;-1.342;2023-02-14T09:45:23;101767.31;;;19.87;32.24
67803;BME280;54601;51.378;-1.342;2023-02-14T09:47:50;101765.27;;;19.95;32.23
67803;BME280;54601;51.378;-1.342;2023-02-14T09:50:17;101765.35;;;20.15;32.07
67803;BME280;54601;51.378;-1.342;2023-02-14T09:52:36;101762.63;;;20.41;31.66
67803;BME280;54601;51.378;-1.342;2023-02-14T09:55:02;101759.03;;;19.92;32.12
67803;BME280;54601;51.378;-1.342;2023-02-14T09:57:35;101749.43;;;20.07;32.27
67803;BME280;54601;51.378;-1.342;2023-02-14T09:59:53;101744.99;;;20.71;31.59
67803;BME280;54601;51.378;-1.342;2023-02-14T10:02:28;101750.59;;;20.64;31.48
67803;BME280;54601;51.378;-1.342;2023-02-14T10:04:48;101749.69;;;20.60;31.23
67803;BME280;54601;51.378;-1.342;2023-02-14T10:07:15;101756.71;;;20.74;31.37
67803;BME280;54601;51.378;-1.342;2023-02-14T10:11:58;101748.99;;;20.47;31.51
67803;BME280;54601;51.378;-1.342;2023-02-14T10:14:24;101744.10;;;20.63;31.49
67803;BME280;54601;51.378;-1.342;2023-02-14T10:16:49;101740.62;;;20.79;31.36
67803;BME280;54601;51.378;-1.342;2023-02-14T10:19:17;101738.93;;;20.53;31.63
67803;BME280;54601;51.378;-1.342;2023-02-14T10:21:41;101738.71;;;20.70;31.42
67803;BME280;54601;51.378;-1.342;2023-02-14T10:24:09;101745.92;;;20.49;31.66
67803;BME280;54601;51.378;-1.342;2023-02-14T10:26:34;101743.91;;;20.11;31.81
67803;BME280;54601;51.378;-1.342;2023-02-14T10:28:54;101744.80;;;20.33;31.80
67803;BME280;54601;51.378;-1.342;2023-02-14T10:31:20;101746.11;;;20.31;31.81
67803;BME280;54601;51.378;-1.342;2023-02-14T10:33:50;101750.56;;;20.10;31.74
67803;BME280;54601;51.378;-1.342;2023-02-14T10:36:13;101751.03;;;20.36;31.68
67803;BME280;54601;51.378;-1.342;2023-02-14T10:38:39;101748.53;;;20.36;31.37
67803;BME280;54601;51.378;-1.342;2023-02-14T10:41:08;101747.90;;;20.18;31.63
67803;BME280;54601;51.378;-1.342;2023-02-14T10:43:31;101746.30;;;20.22;31.56
67803;BME280;54601;51.378;-1.342;2023-02-14T10:45:55;101741.09;;;20.91;30.91
67803;BME280;54601;51.378;-1.342;2023-02-14T10:48:21;101742.30;;;20.31;30.98
67803;BME280;54601;51.378;-1.342;2023-02-14T10:50:42;101743.19;;;20.54;31.15
67803;BME280;54601;51.378;-1.342;2023-02-14T10:53:11;101744.85;;;20.42;30.99
67803;BME280;54601;51.378;-1.342;2023-02-14T10:55:37;101743.54;;;20.39;31.30
67803;BME280;54601;51.378;-1.342;2023-02-14T10:57:54;101742.64;;;20.42;31.24
67803;BME280;54601;51.378;-1.342;2023-02-14T11:00:21;101741.36;;;20.65;30.68
67803;BME280;54601;51.378;-1.342;2023-02-14T11:02:46;101742.27;;;20.40;31.06
67803;BME280;54601;51.378;-1.342;2023-02-14T11:05:18;101740.73;;;20.83;30.78
67803;BME280;54601;51.378;-1.342;2023-02-14T11:07:34;101742.22;;;20.47;31.05
67803;BME280;54601;51.378;-1.342;2023-02-14T11:10:00;101737.01;;;20.77;30.87
67803;BME280;54601;51.378;-1.342;2023-02-14T11:12:30;101733.66;;;20.57;31.07
67803;BME280;54601;51.378;-1.342;2023-02-14T11:14:49;101730.08;;;20.85;30.80
67803;BME280;54601;51.378;-1.342;2023-02-14T11:17:26;101726.47;;;20.85;30.73
67803;BME280;54601;51.378;-1.342;2023-02-14T11:19:39;101720.50;;;21.05;30.39
67803;BME280;54601;51.378;-1.342;2023-02-14T11:22:04;101720.51;;;20.64;30.61
67803;BME280;54601;51.378;-1.342;2023-02-14T11:24:31;101716.68;;;20.69;30.85
67803;BME280;54601;51.378;-1.342;2023-02-14T11:26:58;101718.01;;;20.54;30.78
67803;BME280;54601;51.378;-1.342;2023-02-14T11:29:24;101718.85;;;20.31;30.78
67803;BME280;54601;51.378;-1.342;2023-02-14T11:31:45;101720.61;;;20.63;31.02
67803;BME280;54601;51.378;-1.342;2023-02-14T11:34:21;101720.86;;;20.60;31.02
67803;BME280;54601;51.378;-1.342;2023-02-14T11:36:39;101719.05;;;20.77;30.87
67803;BME280;54601;51.378;-1.342;2023-02-14T11:39:04;101717.59;;;20.61;30.78
67803;BME280;54601;51.378;-1.342;2023-02-14T11:41:25;101713.46;;;20.54;30.81
67803;BME280;54601;51.378;-1.342;2023-02-14T11:43:50;101712.96;;;20.52;30.87
67803;BME280;54601;51.378;-1.342;2023-02-14T11:46:25;101709.71;;;20.52;30.88
67803;BME280;54601;51.378;-1.342;2023-02-14T11:51:08;101707.49;;;20.57;30.76
67803;BME280;54601;51.378;-1.342;2023-02-14T11:53:38;101704.74;;;20.44;30.92
67803;BME280;54601;51.378;-1.342;2023-02-14T11:55:57;101700.16;;;20.60;30.70
67803;BME280;54601;51.378;-1.342;2023-02-14T11:58:28;101692.80;;;20.49;30.45
67803;BME280;54601;51.378;-1.342;2023-02-14T12:00:50;101694.70;;;20.73;30.78
67803;BME280;54601;51.378;-1.342;2023-02-14T12:03:16;101693.09;;;20.58;30.70
67803;BME280;54601;51.378;-1.342;2023-02-14T12:05:43;101691.90;;;20.49;30.77
67803;BME280;54601;51.378;-1.342;2023-02-14T12:08:03;101690.62;;;20.70;30.77
67803;BME280;54601;51.378;-1.342;2023-02-14T12:10:27;101687.15;;;20.75;30.58
67803;BME280;54601;51.378;-1.342;2023-02-14T12:12:55;101684.77;;;20.58;30.47
67803;BME280;54601;51.378;-1.342;2023-02-14T12:15:25;101681.66;;;20.72;30.34
67803;BME280;54601;51.378;-1.342;2023-02-14T12:17:44;101679.80;;;20.64;30.47
67803;BME280;54601;51.378;-1.342;2023-02-14T12:20:09;101676.37;;;20.79;30.21
67803;BME280;54601;51.378;-1.342;2023-02-14T12:22:35;101670.23;;;20.78;30.37
67803;BME280;54601;51.378;-1.342;2023-02-14T12:25:01;101668.62;;;20.78;30.41
67803;BME280;54601;51.378;-1.342;2023-02-14T12:27:24;101672.62;;;20.70;30.48
67803;BME280;54601;51.378;-1.342;2023-02-14T12:29:51;101662.88;;;20.74;30.37
67803;BME280;54601;51.378;-1.342;2023-02-14T12:32:19;101664.27;;;20.55;30.59
67803;BME280;54601;51.378;-1.342;2023-02-14T12:34:37;101663.42;;;20.56;30.53
67803;BME280;54601;51.378;-1.342;2023-02-14T12:39:34;101661.75;;;20.44;30.78
67803;BME280;54601;51.378;-1.342;2023-02-14T12:41:58;101654.87;;;20.75;30.35
67803;BME280;54601;51.378;-1.342;2023-02-14T12:44:23;101654.98;;;20.71;30.45
67803;BME280;54601;51.378;-1.342;2023-02-14T12:46:55;101657.41;;;20.47;30.71
67803;BME280;54601;51.378;-1.342;2023-02-14T12:49:21;101648.26;;;20.83;30.28
67803;BME280;54601;51.378;-1.342;2023-02-14T12:51:37;101647.27;;;20.41;30.76
67803;BME280;54601;51.378;-1.342;2023-02-14T12:54:07;101636.98;;;20.61;30.53